Washington, District of Columbia
Current Conditions -  °F | °C
As of 1:52 PM on Friday 21 Nov 2014 (Local Time) from KDCA Reporting Station
Few Clouds Few Clouds  
Wind Chill: 33°   Ceiling: Unl
Heat Index: 40°   Visibility: 10mi
Dew Point:   Wind: 10mph
Humidity: 25%   Direction: 290°WNW
Pressure: 30.47"   Gusts: 23mph
Location:  38.89°N, 77.03°W
Report Text: KDCA 211852Z 29009G20KT 10SM FEW060 04/M14 A3047 RMK AO2 SLP316 T00441144
Loading
Personal Weather Stations






























Interactive Weather Map New forecast layout! Learn more

10-Day Weather Forecast

Advertisements
Track Severe Weather on mobile